This is the latest recevied weather packets stored in our database for station/object W6ORV. If no packets are shown the sender has not sent any weather packets the latest 1 day(s).
| Time | Temp. | Humidity | Pressure | Rain* | Wind** | Luminosity | Snow |
|---|---|---|---|---|---|---|---|
| 1778005587 | 17.22° C | 59% | 4300.3 hPa | 0 mm | 0 m/s | 258 W/m² | - |
| 1778005284 | 16.67° C | 60% | 4300.2 hPa | 0 mm | 0 m/s | 278 W/m² | - |
| 1778004980 | 17.22° C | 59% | 4300.2 hPa | 0 mm | 0 m/s | 379 W/m² | - |
| 1778004678 | 16.67° C | 60% | 4300.3 hPa | 0 mm | 0 m/s | 553 W/m² | - |
| 1778004374 | 16.67° C | 61% | 4300.2 hPa | 0 mm | 0 m/s | 631 W/m² | - |
| 1778004071 | 16.67° C | 61% | 4300.2 hPa | 0 mm | 0 m/s | 782 W/m² | - |
| 1778003767 | 16.67° C | 62% | 4300.2 hPa | 0 mm | 0 m/s | 597 W/m² | - |
| 1778003464 | 16.67° C | 62% | 4300.2 hPa | 0 mm | 0 m/s | 818 W/m² | - |
| 1778003160 | 16.67° C | 62% | 4300 hPa | 0 mm | 0 m/s | 887 W/m² | - |
| 1778002856 | 16.11° C | 62% | 4299.9 hPa | 0 mm | 0 m/s | 882 W/m² | - |
| 1778002553 | 15.56° C | 65% | 4300.2 hPa | 0 mm | 0 m/s | 984 W/m² | - |
| 1778002250 | 15° C | 67% | 4300.2 hPa | 0 mm | 0 m/s | 652 W/m² | - |
| 1778001948 | 15° C | 67% | 4300.5 hPa | 0 mm | 0 m/s | 389 W/m² | - |
| 1778001644 | 15° C | 70% | 4300.6 hPa | 0 mm | 0 m/s | 360 W/m² | - |
| 1778001339 | 15° C | 68% | 4300.4 hPa | 0 mm | 0 m/s | 341 W/m² | - |
| 1778001036 | 15° C | 68% | 4300.5 hPa | 0 mm | 0 m/s | 791 W/m² | - |
| 1778000733 | 14.44° C | 71% | 4300.4 hPa | 0 mm | 0 m/s | 701 W/m² | - |
| 1778000429 | 13.89° C | 72% | 4300.4 hPa | 0 mm | 0 m/s | 520 W/m² | - |
| 1778000125 | 13.33° C | 74% | 4300.3 hPa | 0 mm | 0 m/s | 416 W/m² | - |
| 1777999820 | 13.33° C | 76% | 4300.4 hPa | 0 mm | 0 m/s | 342 W/m² | - |
| 1777999517 | 13.33° C | 76% | 4300.3 hPa | 0 mm | 0 m/s | 695 W/m² | - |
| 1777999215 | 12.78° C | 77% | 4300.3 hPa | 0 mm | 0 m/s | 382 W/m² | - |
| 1777998913 | 12.78° C | 78% | 4300.3 hPa | 0 mm | 0 m/s | 366 W/m² | - |
| 1777998609 | 12.78° C | 79% | 4300.3 hPa | 0 mm | 0 m/s | 308 W/m² | - |
| 1777998303 | 12.22° C | 80% | 4300.4 hPa | 0 mm | 0 m/s | 249 W/m² | - |
* Rain latest hour (hover to see other rain measurements)
** Current wind speed in m/s (hover to see current wind gust speed)